Briefing drone pour Annonay

Rechercher une autre localisation

Conditions de vol :


Nous sommes le : Mardi 27 septembre 2022
Il est 21:07 UTC (23:07 LT)

Lever de soleil : 05:07 UTC (07:07 LT)
Coucher de soleil : 17:56 UTC (19:56 LT)

Météo

L'essentiel des conditions de vol

VIGILANCE MÉTÉO FRANCE - Ardèche (07)
Pas de vigilances particulieres
METAR de LFMH
LFMH 272100Z AUTO 18007KT 9999 -RA BKN045/// BKN054/// OVC070/// ///TCU 11/09 Q1009

Date d'émission: 27/09/2022
Heure d'émission: 21:00 UTC
Vent: 180° pour 7 KT (13 km/h)
Visibilité horizontale: > 10 km
Plafond :
- Nuages morcelés à 4500ft (1372m)
- Nuages morcelés à 5400ft (1646m)
- Couvert à 7000ft (2134m)
Température: 11 °C
Point de rosée: 9 °C
Humidité: 87%
Pression (QNH): 1009 hPa
Conditions: Faible pluie
TAF de LFMH
LFMH 161901Z 1619/1712 CNL

Conditions prévues :

Heure d'émission : Bulletin éffectué le 16 à 19:00 UTC
Prévision : Valide du 16 a 19:00 UTC au 17 a 12:00 UTC
Nuages : à 0ft (0 m)
WEBCAM POUR ANNONAY

Réglementation

Voler en sécurité

CARTES AERONAUTIQUE 1/500.000
CARTE AZBA (Reseau basse altitude)
CARTES VAC (LFMH)
SUP AIP




Chargement des AIP...
NOTAM (ANNONAY + Terrain à proximité / FIR )




Chargement des NOTAMS...
CONTACT PREFECTURE 07


Avertissement : Les données mises à disposition sont indicatives. Oxygène Drone ne pourra être tenu responsable de dégâts causés aux biens et aux personnes.